Mayfield, Pennsylvania
Current Conditions -  °F | °C
As of 4:54 PM on Friday 31 Oct 2014 (Local Time) from KAVP Reporting Station
Clear Clear  
Wind Chill: 53°   Ceiling: Unl
Heat Index: 53°   Visibility: 10mi
Dew Point: 28°   Wind: 8mph
Humidity: 38%   Direction: 40°NE
Pressure: 29.86"   Gusts: NA
Location:  41.535°N, 75.5334°W
Report Text: KAVP 312054Z 04007KT 10SM CLR 12/M02 A2986 RMK AO2 SLP116 T01171022 56012
Loading
Personal Weather Stations






























Interactive Weather Map
Tropical Storm Tracking
New forecast layout! Learn more

10-Day Weather Forecast

Advertisements
Track Severe Weather on mobile